sensor_id;sensor_type;location;lat;lon;timestamp;P1;durP1;ratioP1;P2;durP2;ratioP2
24826;SDS011;12910;57.690;11.974;2022-12-29T00:01:25;3.77;;;1.10;;
24826;SDS011;12910;57.690;11.974;2022-12-29T00:03:50;0.97;;;0.87;;
24826;SDS011;12910;57.690;11.974;2022-12-29T00:06:16;1.50;;;1.00;;
24826;SDS011;12910;57.690;11.974;2022-12-29T00:08:41;2.27;;;0.80;;
24826;SDS011;12910;57.690;11.974;2022-12-29T00:11:14;0.63;;;0.60;;
24826;SDS011;12910;57.690;11.974;2022-12-29T00:13:51;1.63;;;0.53;;
24826;SDS011;12910;57.690;11.974;2022-12-29T00:16:39;0.93;;;0.90;;
24826;SDS011;12910;57.690;11.974;2022-12-29T00:19:09;3.67;;;0.80;;
24826;SDS011;12910;57.690;11.974;2022-12-29T00:21:55;0.93;;;0.60;;
24826;SDS011;12910;57.690;11.974;2022-12-29T00:24:40;1.37;;;0.60;;
24826;SDS011;12910;57.690;11.974;2022-12-29T00:27:25;2.57;;;0.80;;
24826;SDS011;12910;57.690;11.974;2022-12-29T00:30:10;0.70;;;0.70;;
24826;SDS011;12910;57.690;11.974;2022-12-29T00:32:56;0.90;;;0.70;;
24826;SDS011;12910;57.690;11.974;2022-12-29T00:36:15;0.47;;;0.47;;
24826;SDS011;12910;57.690;11.974;2022-12-29T00:38:39;1.47;;;0.60;;
24826;SDS011;12910;57.690;11.974;2022-12-29T00:41:34;1.40;;;0.87;;
24826;SDS011;12910;57.690;11.974;2022-12-29T00:44:18;0.63;;;0.63;;
24826;SDS011;12910;57.690;11.974;2022-12-29T00:46:43;1.13;;;0.80;;
24826;SDS011;12910;57.690;11.974;2022-12-29T00:49:10;0.53;;;0.40;;
24826;SDS011;12910;57.690;11.974;2022-12-29T00:51:59;1.47;;;0.57;;
24826;SDS011;12910;57.690;11.974;2022-12-29T00:54:31;0.60;;;0.60;;
24826;SDS011;12910;57.690;11.974;2022-12-29T00:57:01;1.73;;;0.60;;
24826;SDS011;12910;57.690;11.974;2022-12-29T00:59:28;0.93;;;0.60;;
24826;SDS011;12910;57.690;11.974;2022-12-29T01:01:53;0.60;;;0.50;;
24826;SDS011;12910;57.690;11.974;2022-12-29T01:04:23;0.60;;;0.60;;
24826;SDS011;12910;57.690;11.974;2022-12-29T01:06:51;0.80;;;0.80;;
24826;SDS011;12910;57.690;11.974;2022-12-29T01:09:17;0.40;;;0.40;;
24826;SDS011;12910;57.690;11.974;2022-12-29T01:12:02;0.73;;;0.70;;
24826;SDS011;12910;57.690;11.974;2022-12-29T01:14:29;0.50;;;0.50;;
24826;SDS011;12910;57.690;11.974;2022-12-29T01:16:55;0.70;;;0.70;;
24826;SDS011;12910;57.690;11.974;2022-12-29T01:19:21;3.70;;;0.90;;
24826;SDS011;12910;57.690;11.974;2022-12-29T01:21:48;0.67;;;0.67;;
24826;SDS011;12910;57.690;11.974;2022-12-29T01:24:17;1.87;;;1.43;;
24826;SDS011;12910;57.690;11.974;2022-12-29T01:26:43;1.63;;;0.70;;
24826;SDS011;12910;57.690;11.974;2022-12-29T01:29:09;1.97;;;0.67;;
24826;SDS011;12910;57.690;11.974;2022-12-29T01:31:35;1.30;;;0.93;;
24826;SDS011;12910;57.690;11.974;2022-12-29T01:34:00;1.40;;;1.00;;
24826;SDS011;12910;57.690;11.974;2022-12-29T01:36:26;4.67;;;1.20;;
24826;SDS011;12910;57.690;11.974;2022-12-29T01:38:52;1.30;;;1.20;;
24826;SDS011;12910;57.690;11.974;2022-12-29T01:41:17;2.83;;;1.60;;
24826;SDS011;12910;57.690;11.974;2022-12-29T01:43:46;3.67;;;2.13;;
24826;SDS011;12910;57.690;11.974;2022-12-29T01:46:25;2.87;;;1.83;;
24826;SDS011;12910;57.690;11.974;2022-12-29T01:48:52;2.17;;;2.07;;
24826;SDS011;12910;57.690;11.974;2022-12-29T01:51:46;5.33;;;1.97;;
24826;SDS011;12910;57.690;11.974;2022-12-29T01:54:16;2.07;;;1.77;;
24826;SDS011;12910;57.690;11.974;2022-12-29T01:56:53;1.90;;;1.80;;
24826;SDS011;12910;57.690;11.974;2022-12-29T01:59:23;2.63;;;1.87;;
24826;SDS011;12910;57.690;11.974;2022-12-29T02:01:52;2.93;;;1.67;;
24826;SDS011;12910;57.690;11.974;2022-12-29T02:04:19;3.93;;;1.70;;
24826;SDS011;12910;57.690;11.974;2022-12-29T02:06:55;1.47;;;1.07;;
24826;SDS011;12910;57.690;11.974;2022-12-29T02:09:24;1.00;;;0.90;;
24826;SDS011;12910;57.690;11.974;2022-12-29T02:11:50;1.83;;;1.17;;
24826;SDS011;12910;57.690;11.974;2022-12-29T02:14:17;3.03;;;1.20;;
24826;SDS011;12910;57.690;11.974;2022-12-29T02:25:11;1.13;;;1.10;;
24826;SDS011;12910;57.690;11.974;2022-12-29T02:27:50;4.67;;;1.57;;
24826;SDS011;12910;57.690;11.974;2022-12-29T02:30:26;2.20;;;1.33;;
24826;SDS011;12910;57.690;11.974;2022-12-29T02:32:58;2.10;;;1.20;;
24826;SDS011;12910;57.690;11.974;2022-12-29T02:35:32;1.20;;;1.00;;
24826;SDS011;12910;57.690;11.974;2022-12-29T02:43:36;0.80;;;0.70;;
24826;SDS011;12910;57.690;11.974;2022-12-29T02:51:54;1.63;;;0.60;;
24826;SDS011;12910;57.690;11.974;2022-12-29T02:54:25;0.80;;;0.80;;
24826;SDS011;12910;57.690;11.974;2022-12-29T03:00:14;0.53;;;0.53;;
24826;SDS011;12910;57.690;11.974;2022-12-29T03:02:57;0.50;;;0.50;;
24826;SDS011;12910;57.690;11.974;2022-12-29T03:08:47;0.30;;;0.30;;
24826;SDS011;12910;57.690;11.974;2022-12-29T03:11:19;0.93;;;0.40;;
24826;SDS011;12910;57.690;11.974;2022-12-29T03:14:15;0.40;;;0.40;;
24826;SDS011;12910;57.690;11.974;2022-12-29T03:17:14;1.63;;;0.50;;
24826;SDS011;12910;57.690;11.974;2022-12-29T03:19:49;0.40;;;0.40;;
24826;SDS011;12910;57.690;11.974;2022-12-29T03:22:23;0.40;;;0.40;;
24826;SDS011;12910;57.690;11.974;2022-12-29T03:24:57;0.40;;;0.40;;
24826;SDS011;12910;57.690;11.974;2022-12-29T03:27:28;0.40;;;0.40;;
24826;SDS011;12910;57.690;11.974;2022-12-29T03:29:57;0.40;;;0.40;;
24826;SDS011;12910;57.690;11.974;2022-12-29T03:32:28;0.30;;;0.30;;
24826;SDS011;12910;57.690;11.974;2022-12-29T03:35:15;0.43;;;0.30;;
24826;SDS011;12910;57.690;11.974;2022-12-29T03:40:42;0.40;;;0.40;;
24826;SDS011;12910;57.690;11.974;2022-12-29T03:43:11;0.40;;;0.40;;
24826;SDS011;12910;57.690;11.974;2022-12-29T03:45:37;0.30;;;0.30;;
24826;SDS011;12910;57.690;11.974;2022-12-29T03:48:03;0.37;;;0.30;;
24826;SDS011;12910;57.690;11.974;2022-12-29T03:50:29;0.20;;;0.20;;
24826;SDS011;12910;57.690;11.974;2022-12-29T03:52:54;0.30;;;0.30;;
24826;SDS011;12910;57.690;11.974;2022-12-29T03:55:20;0.63;;;0.30;;
24826;SDS011;12910;57.690;11.974;2022-12-29T03:57:45;0.20;;;0.20;;
24826;SDS011;12910;57.690;11.974;2022-12-29T04:00:11;0.20;;;0.20;;
24826;SDS011;12910;57.690;11.974;2022-12-29T04:02:36;0.30;;;0.30;;
24826;SDS011;12910;57.690;11.974;2022-12-29T04:05:02;0.20;;;0.20;;
24826;SDS011;12910;57.690;11.974;2022-12-29T04:07:27;0.30;;;0.30;;
24826;SDS011;12910;57.690;11.974;2022-12-29T04:09:53;0.20;;;0.20;;
24826;SDS011;12910;57.690;11.974;2022-12-29T04:12:18;0.10;;;0.10;;
24826;SDS011;12910;57.690;11.974;2022-12-29T04:14:44;0.20;;;0.20;;
24826;SDS011;12910;57.690;11.974;2022-12-29T04:17:09;0.20;;;0.20;;
24826;SDS011;12910;57.690;11.974;2022-12-29T04:19:34;0.20;;;0.20;;
24826;SDS011;12910;57.690;11.974;2022-12-29T04:22:00;0.20;;;0.20;;
24826;SDS011;12910;57.690;11.974;2022-12-29T04:24:25;0.20;;;0.20;;
24826;SDS011;12910;57.690;11.974;2022-12-29T04:26:50;0.30;;;0.20;;
24826;SDS011;12910;57.690;11.974;2022-12-29T04:29:16;0.20;;;0.20;;
24826;SDS011;12910;57.690;11.974;2022-12-29T04:31:41;0.40;;;0.20;;
24826;SDS011;12910;57.690;11.974;2022-12-29T04:34:07;0.30;;;0.30;;
24826;SDS011;12910;57.690;11.974;2022-12-29T04:36:32;2.03;;;0.20;;
24826;SDS011;12910;57.690;11.974;2022-12-29T04:38:58;0.27;;;0.23;;
24826;SDS011;12910;57.690;11.974;2022-12-29T04:41:23;3.53;;;0.20;;
24826;SDS011;12910;57.690;11.974;2022-12-29T04:43:49;0.80;;;0.30;;
24826;SDS011;12910;57.690;11.974;2022-12-29T04:46:14;0.70;;;0.30;;
24826;SDS011;12910;57.690;11.974;2022-12-29T04:48:39;2.90;;;0.43;;
24826;SDS011;12910;57.690;11.974;2022-12-29T04:51:05;3.00;;;0.50;;
24826;SDS011;12910;57.690;11.974;2022-12-29T04:53:30;1.67;;;0.50;;
24826;SDS011;12910;57.690;11.974;2022-12-29T04:55:55;1.80;;;0.60;;
24826;SDS011;12910;57.690;11.974;2022-12-29T04:58:21;0.80;;;0.60;;
24826;SDS011;12910;57.690;11.974;2022-12-29T05:00:47;2.07;;;0.70;;
24826;SDS011;12910;57.690;11.974;2022-12-29T05:03:12;0.83;;;0.83;;
24826;SDS011;12910;57.690;11.974;2022-12-29T05:05:37;1.83;;;0.90;;
24826;SDS011;12910;57.690;11.974;2022-12-29T05:08:03;6.30;;;0.90;;
24826;SDS011;12910;57.690;11.974;2022-12-29T05:10:28;8.50;;;1.47;;
24826;SDS011;12910;57.690;11.974;2022-12-29T05:12:54;1.70;;;1.20;;
24826;SDS011;12910;57.690;11.974;2022-12-29T05:15:20;2.90;;;0.80;;
24826;SDS011;12910;57.690;11.974;2022-12-29T05:17:46;4.73;;;1.50;;
24826;SDS011;12910;57.690;11.974;2022-12-29T05:20:11;2.53;;;1.33;;
24826;SDS011;12910;57.690;11.974;2022-12-29T05:22:36;2.30;;;1.90;;
24826;SDS011;12910;57.690;11.974;2022-12-29T05:25:02;4.40;;;1.60;;
24826;SDS011;12910;57.690;11.974;2022-12-29T05:27:28;2.13;;;1.60;;
24826;SDS011;12910;57.690;11.974;2022-12-29T05:29:53;5.70;;;1.30;;
24826;SDS011;12910;57.690;11.974;2022-12-29T05:32:19;3.80;;;1.20;;
24826;SDS011;12910;57.690;11.974;2022-12-29T05:34:44;4.03;;;0.93;;
24826;SDS011;12910;57.690;11.974;2022-12-29T05:37:09;3.27;;;1.10;;
24826;SDS011;12910;57.690;11.974;2022-12-29T05:39:35;2.20;;;1.10;;
24826;SDS011;12910;57.690;11.974;2022-12-29T05:42:00;5.40;;;0.80;;
24826;SDS011;12910;57.690;11.974;2022-12-29T05:44:26;2.90;;;1.17;;
24826;SDS011;12910;57.690;11.974;2022-12-29T05:46:51;0.87;;;0.73;;
24826;SDS011;12910;57.690;11.974;2022-12-29T05:49:17;3.57;;;1.60;;
24826;SDS011;12910;57.690;11.974;2022-12-29T05:51:42;2.33;;;1.47;;
24826;SDS011;12910;57.690;11.974;2022-12-29T05:54:08;6.80;;;2.63;;
24826;SDS011;12910;57.690;11.974;2022-12-29T05:56:33;3.10;;;2.17;;
24826;SDS011;12910;57.690;11.974;2022-12-29T05:58:59;4.20;;;1.97;;
24826;SDS011;12910;57.690;11.974;2022-12-29T06:01:24;5.30;;;1.77;;
24826;SDS011;12910;57.690;11.974;2022-12-29T06:03:49;3.73;;;1.50;;
24826;SDS011;12910;57.690;11.974;2022-12-29T06:06:15;2.03;;;1.80;;
24826;SDS011;12910;57.690;11.974;2022-12-29T06:08:40;4.77;;;2.20;;
24826;SDS011;12910;57.690;11.974;2022-12-29T06:11:06;3.97;;;2.83;;
24826;SDS011;12910;57.690;11.974;2022-12-29T06:13:32;8.47;;;3.40;;
24826;SDS011;12910;57.690;11.974;2022-12-29T06:15:57;6.23;;;4.30;;
24826;SDS011;12910;57.690;11.974;2022-12-29T06:18:22;6.57;;;4.83;;
24826;SDS011;12910;57.690;11.974;2022-12-29T06:20:48;10.90;;;5.37;;
24826;SDS011;12910;57.690;11.974;2022-12-29T06:23:13;16.97;;;7.20;;
24826;SDS011;12910;57.690;11.974;2022-12-29T06:25:39;15.03;;;6.43;;
24826;SDS011;12910;57.690;11.974;2022-12-29T06:28:04;11.07;;;6.57;;
24826;SDS011;12910;57.690;11.974;2022-12-29T06:30:30;16.10;;;6.60;;
24826;SDS011;12910;57.690;11.974;2022-12-29T06:32:56;11.23;;;6.00;;
24826;SDS011;12910;57.690;11.974;2022-12-29T06:35:22;5.50;;;5.03;;
24826;SDS011;12910;57.690;11.974;2022-12-29T06:37:48;8.90;;;6.33;;
24826;SDS011;12910;57.690;11.974;2022-12-29T06:40:13;5.50;;;5.10;;
24826;SDS011;12910;57.690;11.974;2022-12-29T06:42:39;9.50;;;6.20;;
24826;SDS011;12910;57.690;11.974;2022-12-29T06:45:05;7.60;;;5.40;;
24826;SDS011;12910;57.690;11.974;2022-12-29T06:47:32;5.10;;;3.93;;
24826;SDS011;12910;57.690;11.974;2022-12-29T06:49:58;3.10;;;2.90;;
24826;SDS011;12910;57.690;11.974;2022-12-29T06:52:23;3.03;;;2.83;;
24826;SDS011;12910;57.690;11.974;2022-12-29T06:54:49;1.53;;;1.43;;
24826;SDS011;12910;57.690;11.974;2022-12-29T06:57:14;3.57;;;1.60;;
24826;SDS011;12910;57.690;11.974;2022-12-29T06:59:39;1.17;;;0.97;;
24826;SDS011;12910;57.690;11.974;2022-12-29T07:02:05;0.80;;;0.80;;
24826;SDS011;12910;57.690;11.974;2022-12-29T07:04:30;2.03;;;1.20;;
24826;SDS011;12910;57.690;11.974;2022-12-29T07:06:56;1.40;;;1.00;;
24826;SDS011;12910;57.690;11.974;2022-12-29T07:09:21;3.90;;;1.30;;
24826;SDS011;12910;57.690;11.974;2022-12-29T07:11:46;2.93;;;1.30;;
24826;SDS011;12910;57.690;11.974;2022-12-29T07:14:12;1.70;;;1.03;;
24826;SDS011;12910;57.690;11.974;2022-12-29T07:16:37;1.57;;;1.40;;
24826;SDS011;12910;57.690;11.974;2022-12-29T07:19:03;2.97;;;1.87;;
24826;SDS011;12910;57.690;11.974;2022-12-29T07:21:28;2.20;;;1.90;;
24826;SDS011;12910;57.690;11.974;2022-12-29T07:23:54;2.00;;;1.87;;
24826;SDS011;12910;57.690;11.974;2022-12-29T07:26:20;2.80;;;2.60;;
24826;SDS011;12910;57.690;11.974;2022-12-29T07:28:45;3.13;;;2.90;;
24826;SDS011;12910;57.690;11.974;2022-12-29T07:31:15;3.77;;;3.47;;
24826;SDS011;12910;57.690;11.974;2022-12-29T07:33:42;3.37;;;3.03;;
24826;SDS011;12910;57.690;11.974;2022-12-29T07:36:11;6.87;;;3.63;;
24826;SDS011;12910;57.690;11.974;2022-12-29T07:38:37;7.80;;;4.10;;
24826;SDS011;12910;57.690;11.974;2022-12-29T07:41:02;3.53;;;3.07;;
24826;SDS011;12910;57.690;11.974;2022-12-29T07:43:27;6.67;;;3.23;;
24826;SDS011;12910;57.690;11.974;2022-12-29T07:45:53;5.03;;;2.97;;
24826;SDS011;12910;57.690;11.974;2022-12-29T07:48:19;7.47;;;3.07;;
24826;SDS011;12910;57.690;11.974;2022-12-29T07:50:44;4.40;;;4.00;;
24826;SDS011;12910;57.690;11.974;2022-12-29T07:53:09;3.73;;;3.43;;
24826;SDS011;12910;57.690;11.974;2022-12-29T07:55:35;3.80;;;2.53;;
24826;SDS011;12910;57.690;11.974;2022-12-29T07:58:00;8.20;;;3.67;;
24826;SDS011;12910;57.690;11.974;2022-12-29T08:00:26;2.97;;;2.50;;
24826;SDS011;12910;57.690;11.974;2022-12-29T08:02:51;3.87;;;3.57;;
24826;SDS011;12910;57.690;11.974;2022-12-29T08:05:17;3.87;;;3.50;;
24826;SDS011;12910;57.690;11.974;2022-12-29T08:07:43;10.77;;;3.97;;
24826;SDS011;12910;57.690;11.974;2022-12-29T08:10:09;10.97;;;3.40;;
24826;SDS011;12910;57.690;11.974;2022-12-29T08:12:37;8.50;;;3.53;;
24826;SDS011;12910;57.690;11.974;2022-12-29T08:15:03;12.80;;;4.63;;
24826;SDS011;12910;57.690;11.974;2022-12-29T08:17:29;10.00;;;3.30;;
24826;SDS011;12910;57.690;11.974;2022-12-29T08:19:54;16.63;;;4.77;;
24826;SDS011;12910;57.690;11.974;2022-12-29T08:22:19;14.53;;;4.73;;
24826;SDS011;12910;57.690;11.974;2022-12-29T08:24:45;6.47;;;3.90;;
24826;SDS011;12910;57.690;11.974;2022-12-29T08:27:10;11.90;;;4.97;;
24826;SDS011;12910;57.690;11.974;2022-12-29T08:29:35;4.57;;;2.83;;
24826;SDS011;12910;57.690;11.974;2022-12-29T08:32:01;7.83;;;3.83;;
24826;SDS011;12910;57.690;11.974;2022-12-29T08:34:26;7.80;;;3.20;;
24826;SDS011;12910;57.690;11.974;2022-12-29T08:36:51;5.80;;;2.80;;
24826;SDS011;12910;57.690;11.974;2022-12-29T08:39:17;19.60;;;3.80;;
24826;SDS011;12910;57.690;11.974;2022-12-29T08:41:42;5.53;;;2.77;;
24826;SDS011;12910;57.690;11.974;2022-12-29T08:44:07;8.20;;;2.57;;
24826;SDS011;12910;57.690;11.974;2022-12-29T08:46:33;11.13;;;2.63;;
24826;SDS011;12910;57.690;11.974;2022-12-29T08:48:58;20.93;;;2.70;;
24826;SDS011;12910;57.690;11.974;2022-12-29T08:51:23;18.87;;;3.90;;
24826;SDS011;12910;57.690;11.974;2022-12-29T08:53:49;6.77;;;3.47;;
24826;SDS011;12910;57.690;11.974;2022-12-29T08:56:15;5.57;;;2.90;;
24826;SDS011;12910;57.690;11.974;2022-12-29T08:58:41;9.50;;;2.73;;
24826;SDS011;12910;57.690;11.974;2022-12-29T09:01:06;4.47;;;3.10;;
24826;SDS011;12910;57.690;11.974;2022-12-29T09:03:32;13.10;;;3.27;;
24826;SDS011;12910;57.690;11.974;2022-12-29T09:05:57;5.97;;;3.23;;
24826;SDS011;12910;57.690;11.974;2022-12-29T09:08:22;8.47;;;3.40;;
24826;SDS011;12910;57.690;11.974;2022-12-29T09:10:48;19.93;;;4.43;;
24826;SDS011;12910;57.690;11.974;2022-12-29T09:13:15;14.20;;;4.40;;
24826;SDS011;12910;57.690;11.974;2022-12-29T09:15:41;8.07;;;4.33;;
24826;SDS011;12910;57.690;11.974;2022-12-29T09:18:07;14.30;;;4.13;;
24826;SDS011;12910;57.690;11.974;2022-12-29T09:20:35;23.50;;;5.07;;
24826;SDS011;12910;57.690;11.974;2022-12-29T09:23:00;19.33;;;5.00;;
24826;SDS011;12910;57.690;11.974;2022-12-29T09:25:26;13.50;;;6.00;;
24826;SDS011;12910;57.690;11.974;2022-12-29T09:27:52;7.73;;;5.77;;
24826;SDS011;12910;57.690;11.974;2022-12-29T09:30:19;16.33;;;6.50;;
24826;SDS011;12910;57.690;11.974;2022-12-29T09:32:46;12.23;;;8.13;;
24826;SDS011;12910;57.690;11.974;2022-12-29T09:35:12;13.30;;;7.97;;
24826;SDS011;12910;57.690;11.974;2022-12-29T09:37:38;12.07;;;7.37;;
24826;SDS011;12910;57.690;11.974;2022-12-29T09:40:04;8.70;;;7.83;;
24826;SDS011;12910;57.690;11.974;2022-12-29T09:47:51;7.77;;;7.07;;
24826;SDS011;12910;57.690;11.974;2022-12-29T09:50:30;12.73;;;7.67;;
24826;SDS011;12910;57.690;11.974;2022-12-29T09:53:07;7.27;;;6.40;;
24826;SDS011;12910;57.690;11.974;2022-12-29T09:55:38;5.43;;;4.90;;
24826;SDS011;12910;57.690;11.974;2022-12-29T09:58:10;5.30;;;4.27;;
24826;SDS011;12910;57.690;11.974;2022-12-29T10:00:41;4.83;;;4.33;;
24826;SDS011;12910;57.690;11.974;2022-12-29T10:03:21;5.80;;;5.23;;
24826;SDS011;12910;57.690;11.974;2022-12-29T10:25:17;6.93;;;6.23;;
24826;SDS011;12910;57.690;11.974;2022-12-29T10:27:47;9.47;;;5.37;;
24826;SDS011;12910;57.690;11.974;2022-12-29T10:30:13;20.00;;;5.40;;
24826;SDS011;12910;57.690;11.974;2022-12-29T10:32:43;13.87;;;6.23;;
24826;SDS011;12910;57.690;11.974;2022-12-29T10:35:14;14.43;;;6.83;;
24826;SDS011;12910;57.690;11.974;2022-12-29T10:42:54;11.67;;;4.60;;
24826;SDS011;12910;57.690;11.974;2022-12-29T10:45:21;12.23;;;4.33;;
24826;SDS011;12910;57.690;11.974;2022-12-29T10:47:55;9.20;;;4.17;;
24826;SDS011;12910;57.690;11.974;2022-12-29T10:50:22;7.37;;;3.60;;
24826;SDS011;12910;57.690;11.974;2022-12-29T10:52:49;6.43;;;3.10;;
24826;SDS011;12910;57.690;11.974;2022-12-29T10:55:16;16.80;;;4.10;;
24826;SDS011;12910;57.690;11.974;2022-12-29T10:57:46;12.27;;;2.93;;
24826;SDS011;12910;57.690;11.974;2022-12-29T11:00:13;11.23;;;3.07;;
24826;SDS011;12910;57.690;11.974;2022-12-29T11:08:30;13.43;;;2.40;;
24826;SDS011;12910;57.690;11.974;2022-12-29T11:11:02;18.40;;;3.50;;
24826;SDS011;12910;57.690;11.974;2022-12-29T11:13:29;11.63;;;2.23;;
24826;SDS011;12910;57.690;11.974;2022-12-29T11:15:56;13.07;;;1.90;;
24826;SDS011;12910;57.690;11.974;2022-12-29T11:20:50;15.57;;;2.47;;
24826;SDS011;12910;57.690;11.974;2022-12-29T11:23:25;8.40;;;1.40;;
24826;SDS011;12910;57.690;11.974;2022-12-29T11:26:05;9.43;;;2.23;;
24826;SDS011;12910;57.690;11.974;2022-12-29T11:28:37;16.97;;;2.90;;
24826;SDS011;12910;57.690;11.974;2022-12-29T11:31:04;15.33;;;2.50;;
24826;SDS011;12910;57.690;11.974;2022-12-29T11:33:31;16.33;;;2.23;;
24826;SDS011;12910;57.690;11.974;2022-12-29T11:35:58;10.23;;;1.90;;
24826;SDS011;12910;57.690;11.974;2022-12-29T11:38:31;15.47;;;2.53;;
24826;SDS011;12910;57.690;11.974;2022-12-29T11:41:11;12.03;;;3.57;;
24826;SDS011;12910;57.690;11.974;2022-12-29T11:43:41;12.23;;;2.60;;
24826;SDS011;12910;57.690;11.974;2022-12-29T11:46:20;13.17;;;2.40;;
24826;SDS011;12910;57.690;11.974;2022-12-29T11:49:10;12.93;;;2.20;;
24826;SDS011;12910;57.690;11.974;2022-12-29T11:51:44;23.87;;;3.00;;
24826;SDS011;12910;57.690;11.974;2022-12-29T11:54:14;16.77;;;3.00;;
24826;SDS011;12910;57.690;11.974;2022-12-29T11:56:46;19.17;;;3.57;;
24826;SDS011;12910;57.690;11.974;2022-12-29T12:02:41;23.87;;;2.10;;
24826;SDS011;12910;57.690;11.974;2022-12-29T12:07:55;6.67;;;2.43;;
24826;SDS011;12910;57.690;11.974;2022-12-29T12:10:34;19.20;;;2.70;;
24826;SDS011;12910;57.690;11.974;2022-12-29T12:16:03;16.30;;;2.63;;
24826;SDS011;12910;57.690;11.974;2022-12-29T12:18:37;12.20;;;2.57;;
24826;SDS011;12910;57.690;11.974;2022-12-29T12:24:00;22.63;;;2.63;;
24826;SDS011;12910;57.690;11.974;2022-12-29T12:26:58;22.10;;;3.53;;
24826;SDS011;12910;57.690;11.974;2022-12-29T12:29:43;13.57;;;2.43;;
24826;SDS011;12910;57.690;11.974;2022-12-29T12:33:15;21.93;;;2.60;;
24826;SDS011;12910;57.690;11.974;2022-12-29T12:35:34;21.00;;;2.93;;
24826;SDS011;12910;57.690;11.974;2022-12-29T12:38:05;13.17;;;2.60;;
24826;SDS011;12910;57.690;11.974;2022-12-29T12:46:29;14.47;;;2.83;;
24826;SDS011;12910;57.690;11.974;2022-12-29T12:51:45;22.30;;;2.97;;
24826;SDS011;12910;57.690;11.974;2022-12-29T13:00:11;12.00;;;2.30;;
24826;SDS011;12910;57.690;11.974;2022-12-29T13:05:20;11.80;;;1.93;;
24826;SDS011;12910;57.690;11.974;2022-12-29T13:10:42;13.77;;;3.03;;
24826;SDS011;12910;57.690;11.974;2022-12-29T13:16:03;12.30;;;2.60;;
24826;SDS011;12910;57.690;11.974;2022-12-29T13:21:19;27.17;;;2.93;;
24826;SDS011;12910;57.690;11.974;2022-12-29T13:26:52;26.63;;;3.67;;
24826;SDS011;12910;57.690;11.974;2022-12-29T13:29:27;13.67;;;2.90;;
24826;SDS011;12910;57.690;11.974;2022-12-29T13:32:23;10.57;;;2.67;;
24826;SDS011;12910;57.690;11.974;2022-12-29T13:35:03;13.33;;;3.10;;
24826;SDS011;12910;57.690;11.974;2022-12-29T13:37:54;25.00;;;3.27;;
24826;SDS011;12910;57.690;11.974;2022-12-29T13:40:26;15.63;;;2.73;;
24826;SDS011;12910;57.690;11.974;2022-12-29T13:42:59;9.73;;;1.90;;
24826;SDS011;12910;57.690;11.974;2022-12-29T13:45:26;15.50;;;2.37;;
24826;SDS011;12910;57.690;11.974;2022-12-29T13:47:57;25.53;;;3.53;;
24826;SDS011;12910;57.690;11.974;2022-12-29T13:50:31;26.53;;;4.10;;
24826;SDS011;12910;57.690;11.974;2022-12-29T13:53:04;15.20;;;2.77;;
24826;SDS011;12910;57.690;11.974;2022-12-29T13:55:41;42.63;;;4.23;;
24826;SDS011;12910;57.690;11.974;2022-12-29T14:01:01;10.83;;;2.40;;
24826;SDS011;12910;57.690;11.974;2022-12-29T14:04:02;13.50;;;3.80;;
24826;SDS011;12910;57.690;11.974;2022-12-29T14:06:22;25.00;;;3.57;;
24826;SDS011;12910;57.690;11.974;2022-12-29T14:08:57;20.07;;;3.17;;
24826;SDS011;12910;57.690;11.974;2022-12-29T14:11:43;25.53;;;3.00;;
24826;SDS011;12910;57.690;11.974;2022-12-29T14:14:13;30.87;;;3.60;;
24826;SDS011;12910;57.690;11.974;2022-12-29T14:16:46;12.33;;;2.13;;
24826;SDS011;12910;57.690;11.974;2022-12-29T14:22:02;19.07;;;2.83;;
24826;SDS011;12910;57.690;11.974;2022-12-29T14:34:49;23.43;;;3.30;;
24826;SDS011;12910;57.690;11.974;2022-12-29T14:37:29;20.93;;;3.23;;
24826;SDS011;12910;57.690;11.974;2022-12-29T14:42:42;37.20;;;5.13;;
24826;SDS011;12910;57.690;11.974;2022-12-29T14:47:40;33.00;;;5.17;;
24826;SDS011;12910;57.690;11.974;2022-12-29T14:52:48;21.80;;;2.70;;
24826;SDS011;12910;57.690;11.974;2022-12-29T14:58:01;31.27;;;2.83;;
24826;SDS011;12910;57.690;11.974;2022-12-29T15:00:30;26.30;;;3.10;;
24826;SDS011;12910;57.690;11.974;2022-12-29T15:08:11;12.37;;;2.60;;
24826;SDS011;12910;57.690;11.974;2022-12-29T15:10:42;16.00;;;3.10;;
24826;SDS011;12910;57.690;11.974;2022-12-29T15:13:17;17.63;;;2.50;;
24826;SDS011;12910;57.690;11.974;2022-12-29T15:15:47;17.37;;;3.50;;
24826;SDS011;12910;57.690;11.974;2022-12-29T15:18:23;10.87;;;2.20;;
24826;SDS011;12910;57.690;11.974;2022-12-29T15:20:55;16.60;;;2.10;;
24826;SDS011;12910;57.690;11.974;2022-12-29T15:23:25;9.57;;;1.53;;
24826;SDS011;12910;57.690;11.974;2022-12-29T15:25:58;11.53;;;2.03;;
24826;SDS011;12910;57.690;11.974;2022-12-29T15:28:28;8.33;;;1.90;;
24826;SDS011;12910;57.690;11.974;2022-12-29T15:33:41;8.13;;;2.23;;
24826;SDS011;12910;57.690;11.974;2022-12-29T15:38:44;9.67;;;1.53;;
24826;SDS011;12910;57.690;11.974;2022-12-29T15:44:15;10.27;;;1.90;;
24826;SDS011;12910;57.690;11.974;2022-12-29T15:46:45;8.97;;;1.83;;
24826;SDS011;12910;57.690;11.974;2022-12-29T15:49:11;4.63;;;0.97;;
24826;SDS011;12910;57.690;11.974;2022-12-29T15:51:39;7.83;;;0.90;;
24826;SDS011;12910;57.690;11.974;2022-12-29T15:54:05;7.83;;;1.60;;
24826;SDS011;12910;57.690;11.974;2022-12-29T15:56:37;9.93;;;1.10;;
24826;SDS011;12910;57.690;11.974;2022-12-29T15:59:02;6.53;;;1.73;;
24826;SDS011;12910;57.690;11.974;2022-12-29T16:03:57;3.37;;;1.77;;
24826;SDS011;12910;57.690;11.974;2022-12-29T16:06:53;7.93;;;2.40;;
24826;SDS011;12910;57.690;11.974;2022-12-29T16:09:19;8.97;;;1.63;;
24826;SDS011;12910;57.690;11.974;2022-12-29T16:11:55;13.00;;;1.80;;
24826;SDS011;12910;57.690;11.974;2022-12-29T16:14:27;18.03;;;2.30;;
24826;SDS011;12910;57.690;11.974;2022-12-29T16:17:05;17.37;;;1.73;;
24826;SDS011;12910;57.690;11.974;2022-12-29T16:19:35;20.37;;;1.90;;
24826;SDS011;12910;57.690;11.974;2022-12-29T16:22:09;13.60;;;2.33;;
24826;SDS011;12910;57.690;11.974;2022-12-29T16:24:37;11.70;;;2.63;;
24826;SDS011;12910;57.690;11.974;2022-12-29T16:29:30;17.33;;;3.40;;
24826;SDS011;12910;57.690;11.974;2022-12-29T16:31:57;17.37;;;2.70;;
24826;SDS011;12910;57.690;11.974;2022-12-29T16:34:32;14.27;;;2.30;;
24826;SDS011;12910;57.690;11.974;2022-12-29T16:37:20;14.27;;;3.00;;
24826;SDS011;12910;57.690;11.974;2022-12-29T16:39:49;23.70;;;2.33;;
24826;SDS011;12910;57.690;11.974;2022-12-29T16:42:34;15.77;;;2.40;;
24826;SDS011;12910;57.690;11.974;2022-12-29T16:48:28;15.33;;;2.53;;
24826;SDS011;12910;57.690;11.974;2022-12-29T16:50:42;6.37;;;1.67;;
24826;SDS011;12910;57.690;11.974;2022-12-29T16:53:42;14.63;;;3.43;;
24826;SDS011;12910;57.690;11.974;2022-12-29T16:56:08;13.67;;;2.53;;
24826;SDS011;12910;57.690;11.974;2022-12-29T16:58:45;25.70;;;2.97;;
24826;SDS011;12910;57.690;11.974;2022-12-29T17:01:12;6.57;;;2.33;;
24826;SDS011;12910;57.690;11.974;2022-12-29T17:03:40;12.10;;;3.33;;
24826;SDS011;12910;57.690;11.974;2022-12-29T17:06:14;8.43;;;2.57;;
24826;SDS011;12910;57.690;11.974;2022-12-29T17:08:42;13.13;;;2.50;;
24826;SDS011;12910;57.690;11.974;2022-12-29T17:11:30;24.50;;;4.43;;
24826;SDS011;12910;57.690;11.974;2022-12-29T17:16:56;14.00;;;3.73;;
24826;SDS011;12910;57.690;11.974;2022-12-29T17:19:27;11.90;;;2.27;;
24826;SDS011;12910;57.690;11.974;2022-12-29T17:21:55;9.43;;;1.87;;
24826;SDS011;12910;57.690;11.974;2022-12-29T17:24:21;16.23;;;2.10;;
24826;SDS011;12910;57.690;11.974;2022-12-29T17:26:51;7.03;;;1.90;;